Time;durP1;ratioP1;P1;durP2;ratioP2;P2;SDS_P1;SDS_P2;PMS_P1;PMS_P2;Temp;Humidity;BMP_temperature;BMP_pressure;BME280_temperature;BME280_humidity;BME280_pressure;Samples;Min_cycle;Max_cycle;Signal;HPM_P1;HPM_P2
2023/09/12 00:01:21;;;;;;;;;;;24.90;54.40;;;;;;5033964;28;19988;-60
2023/09/12 00:03:48;;;;;;;;;;;24.90;54.40;;;;;;5034655;28;19932;-60
2023/09/12 00:06:15;;;;;;;;;;;24.90;54.40;;;;;;5044291;28;19925;-60
2023/09/12 00:08:42;;;;;;;;;;;24.90;54.40;;;;;;5054238;28;19978;-60
2023/09/12 00:11:11;;;;;;;;;;;24.90;54.30;;;;;;5054283;28;19924;-61
2023/09/12 00:13:39;;;;;;;;;;;24.90;54.40;;;;;;5054650;28;20340;-60
2023/09/12 00:16:09;;;;;;;;;;;24.90;54.40;;;;;;5053767;28;19932;-60
2023/09/12 00:18:37;;;;;;;;;;;24.80;54.40;;;;;;5052818;28;19929;-60
2023/09/12 00:21:04;;;;;;;;;;;24.80;54.40;;;;;;5053975;28;19925;-60
2023/09/12 00:23:31;;;;;;;;;;;24.90;54.40;;;;;;5054382;28;19924;-60
2023/09/12 00:25:58;;;;;;;;;;;24.80;54.40;;;;;;5054359;28;19925;-60
2023/09/12 00:28:25;;;;;;;;;;;24.80;54.40;;;;;;5044391;28;19957;-60
2023/09/12 00:30:52;;;;;;;;;;;24.80;54.40;;;;;;5050842;28;19983;-60
2023/09/12 00:33:19;;;;;;;;;;;24.80;54.50;;;;;;5050588;28;19929;-60
2023/09/12 00:35:47;;;;;;;;;;;24.80;54.40;;;;;;5034153;28;19925;-60
2023/09/12 00:38:13;;;;;;;;;;;24.80;54.40;;;;;;5033921;28;20289;-60
2023/09/12 00:40:43;;;;;;;;;;;24.80;54.40;;;;;;5034040;28;20013;-60
2023/09/12 00:43:10;;;;;;;;;;;24.80;54.50;;;;;;5033388;28;19925;-61
2023/09/12 00:45:37;;;;;;;;;;;24.80;54.50;;;;;;5038798;28;20321;-60
2023/09/12 00:48:05;;;;;;;;;;;24.80;54.50;;;;;;5053660;28;20365;-61
2023/09/12 00:50:32;;;;;;;;;;;24.80;54.40;;;;;;5053312;28;20029;-61
2023/09/12 00:53:00;;;;;;;;;;;24.80;54.40;;;;;;5054009;28;19944;-60
2023/09/12 00:55:29;;;;;;;;;;;24.70;54.40;;;;;;5054039;28;19925;-60
2023/09/12 00:57:55;;;;;;;;;;;24.70;54.40;;;;;;5053474;28;19972;-60
2023/09/12 01:00:23;;;;;;;;;;;24.70;54.40;;;;;;5053678;28;20332;-60
2023/09/12 01:02:52;;;;;;;;;;;24.70;54.40;;;;;;5052674;28;19999;-60
2023/09/12 01:05:20;;;;;;;;;;;24.80;54.40;;;;;;5053035;28;19983;-60
2023/09/12 01:07:47;;;;;;;;;;;24.80;54.30;;;;;;5053312;28;19979;-60
2023/09/12 01:10:14;;;;;;;;;;;24.80;54.30;;;;;;5053216;28;19979;-61
2023/09/12 01:12:41;;;;;;;;;;;24.70;54.20;;;;;;5053150;28;19975;-60
2023/09/12 01:15:13;;;;;;;;;;;24.70;54.20;;;;;;5053015;28;19924;-61
2023/09/12 01:17:44;;;;;;;;;;;24.80;54.30;;;;;;5052989;28;19925;-60
2023/09/12 01:20:15;;;;;;;;;;;24.80;54.20;;;;;;5053294;28;19924;-61
2023/09/12 01:22:52;;;;;;;;;;;24.80;54.20;;;;;;5052901;28;20343;-60
2023/09/12 01:25:34;;;;;;;;;;;24.80;54.20;;;;;;5053051;28;19933;-61
2023/09/12 01:28:03;;;;;;;;;;;24.70;54.20;;;;;;5053347;28;20336;-60
2023/09/12 01:30:31;;;;;;;;;;;24.80;54.20;;;;;;5053235;28;19925;-60
2023/09/12 01:32:58;;;;;;;;;;;24.80;54.30;;;;;;5053238;28;20320;-60
2023/09/12 01:35:26;;;;;;;;;;;24.80;54.30;;;;;;5053473;28;19928;-61
2023/09/12 01:37:53;;;;;;;;;;;24.70;54.30;;;;;;5052628;28;20280;-60
2023/09/12 01:40:32;;;;;;;;;;;24.70;54.30;;;;;;5052535;28;20205;-60
2023/09/12 01:43:00;;;;;;;;;;;24.70;54.30;;;;;;5053068;28;19951;-60
2023/09/12 01:45:28;;;;;;;;;;;24.70;54.30;;;;;;5053325;28;19924;-61
2023/09/12 01:47:55;;;;;;;;;;;24.70;54.30;;;;;;5052696;28;19924;-60
2023/09/12 01:50:22;;;;;;;;;;;24.70;54.30;;;;;;5051078;28;19928;-61
2023/09/12 01:52:49;;;;;;;;;;;24.70;54.30;;;;;;5052802;28;19929;-61
2023/09/12 01:55:17;;;;;;;;;;;24.70;54.30;;;;;;5052731;28;19933;-61
2023/09/12 01:57:44;;;;;;;;;;;24.70;54.30;;;;;;5051864;28;19925;-60
2023/09/12 02:00:12;;;;;;;;;;;24.70;54.30;;;;;;5052839;28;20427;-60
2023/09/12 02:02:39;;;;;;;;;;;24.70;54.80;;;;;;5052925;28;19929;-61
2023/09/12 02:05:18;;;;;;;;;;;24.70;54.30;;;;;;5052866;28;20370;-60
2023/09/12 02:07:46;;;;;;;;;;;24.70;54.30;;;;;;5051375;28;19925;-60
2023/09/12 02:10:13;;;;;;;;;;;24.70;54.30;;;;;;5052648;28;20371;-60
2023/09/12 02:12:41;;;;;;;;;;;24.70;54.30;;;;;;5052132;28;19929;-60
2023/09/12 02:15:08;;;;;;;;;;;24.70;54.20;;;;;;5055442;28;19925;-60
2023/09/12 02:17:35;;;;;;;;;;;24.70;54.20;;;;;;5056530;28;19932;-61
2023/09/12 02:20:05;;;;;;;;;;;24.70;54.20;;;;;;5056568;28;20323;-60
2023/09/12 02:22:32;;;;;;;;;;;24.70;54.10;;;;;;5056056;28;19951;-61
2023/09/12 02:24:59;;;;;;;;;;;24.70;54.10;;;;;;5056470;28;19963;-60
2023/09/12 02:27:26;;;;;;;;;;;24.70;54.00;;;;;;5056240;28;20024;-61
2023/09/12 02:29:53;;;;;;;;;;;24.70;54.60;;;;;;5056453;28;19925;-60
2023/09/12 02:32:19;;;;;;;;;;;24.70;54.00;;;;;;5054807;28;19974;-61
2023/09/12 02:34:46;;;;;;;;;;;24.70;54.50;;;;;;5055210;28;20020;-61
2023/09/12 02:37:13;;;;;;;;;;;24.70;54.00;;;;;;5056011;28;19960;-61
2023/09/12 02:39:40;;;;;;;;;;;24.70;54.00;;;;;;5056306;28;19952;-63
2023/09/12 02:42:08;;;;;;;;;;;24.70;54.50;;;;;;5055951;28;19925;-61
2023/09/12 02:44:35;;;;;;;;;;;24.70;53.90;;;;;;5055909;28;19935;-61
2023/09/12 02:47:03;;;;;;;;;;;24.70;54.00;;;;;;5055656;28;20381;-61
2023/09/12 02:49:31;;;;;;;;;;;24.70;54.00;;;;;;5056151;28;19925;-61
2023/09/12 02:51:58;;;;;;;;;;;24.70;54.00;;;;;;5054726;28;19932;-59
2023/09/12 02:54:25;;;;;;;;;;;24.70;54.00;;;;;;5055902;28;20008;-59
2023/09/12 02:56:52;;;;;;;;;;;24.70;54.10;;;;;;5056109;28;20039;-59
2023/09/12 02:59:19;;;;;;;;;;;24.70;54.10;;;;;;5055663;28;19970;-59
2023/09/12 03:01:46;;;;;;;;;;;24.60;54.00;;;;;;5055162;28;20019;-60
2023/09/12 03:04:13;;;;;;;;;;;24.70;54.10;;;;;;5056223;28;19978;-59
2023/09/12 03:06:40;;;;;;;;;;;24.60;54.10;;;;;;5055705;28;20023;-60
2023/09/12 03:09:07;;;;;;;;;;;24.70;54.10;;;;;;5055854;28;19940;-63
2023/09/12 03:11:34;;;;;;;;;;;24.60;54.10;;;;;;5054113;28;19925;-60
2023/09/12 03:14:01;;;;;;;;;;;24.60;54.10;;;;;;5055451;28;19929;-59
2023/09/12 03:16:28;;;;;;;;;;;24.60;54.10;;;;;;5070837;28;19925;-60
2023/09/12 03:18:55;;;;;;;;;;;24.70;54.20;;;;;;5055012;28;19925;-60
2023/09/12 03:21:22;;;;;;;;;;;24.60;54.00;;;;;;5054524;28;19932;-59
2023/09/12 03:23:49;;;;;;;;;;;24.60;54.10;;;;;;5070042;28;20019;-59
2023/09/12 03:26:16;;;;;;;;;;;24.60;54.10;;;;;;5054424;28;19994;-59
2023/09/12 03:28:43;;;;;;;;;;;24.60;54.10;;;;;;5055035;28;20274;-60
2023/09/12 03:31:12;;;;;;;;;;;24.60;54.10;;;;;;5055320;28;20172;-59
2023/09/12 03:33:40;;;;;;;;;;;24.60;54.10;;;;;;5054830;28;19998;-59
2023/09/12 03:36:07;;;;;;;;;;;24.60;54.10;;;;;;5054917;28;20424;-59
2023/09/12 03:38:34;;;;;;;;;;;24.60;54.60;;;;;;5054626;28;19924;-59
2023/09/12 03:41:01;;;;;;;;;;;24.60;54.00;;;;;;5054672;28;20007;-59
2023/09/12 03:43:28;;;;;;;;;;;24.60;54.00;;;;;;5055252;28;19964;-59
2023/09/12 03:45:55;;;;;;;;;;;24.60;53.90;;;;;;5054643;28;20007;-59
2023/09/12 03:48:22;;;;;;;;;;;24.60;53.90;;;;;;5054446;28;19925;-59
2023/09/12 03:50:49;;;;;;;;;;;24.70;53.90;;;;;;5054344;28;19931;-59
2023/09/12 03:53:17;;;;;;;;;;;24.60;53.80;;;;;;5055011;28;20004;-59
2023/09/12 03:55:44;;;;;;;;;;;24.70;53.90;;;;;;5054316;28;19978;-59
2023/09/12 03:58:11;;;;;;;;;;;24.60;53.80;;;;;;5054477;28;20015;-59
2023/09/12 04:00:38;;;;;;;;;;;24.60;53.70;;;;;;5053679;28;19934;-59
2023/09/12 04:03:05;;;;;;;;;;;24.70;53.80;;;;;;5054723;28;19999;-59
2023/09/12 04:05:32;;;;;;;;;;;24.70;53.80;;;;;;5054644;28;19924;-59
2023/09/12 04:07:59;;;;;;;;;;;24.70;53.80;;;;;;5054228;28;19964;-59
2023/09/12 04:10:26;;;;;;;;;;;24.60;53.70;;;;;;5054453;28;20407;-59
2023/09/12 04:12:53;;;;;;;;;;;24.60;53.80;;;;;;5054088;28;19979;-59
2023/09/12 04:15:20;;;;;;;;;;;24.60;53.80;;;;;;5054370;28;20317;-59
2023/09/12 04:17:47;;;;;;;;;;;24.60;53.80;;;;;;5054444;28;19979;-59
2023/09/12 04:20:14;;;;;;;;;;;24.60;53.80;;;;;;5054631;28;19963;-59
2023/09/12 04:22:42;;;;;;;;;;;24.60;53.80;;;;;;5053648;28;19983;-59
2023/09/12 04:25:09;;;;;;;;;;;24.60;53.80;;;;;;5053619;28;19924;-59
2023/09/12 04:27:36;;;;;;;;;;;24.60;53.80;;;;;;5052565;28;19975;-59
2023/09/12 04:30:03;;;;;;;;;;;24.60;53.80;;;;;;5053298;28;19976;-59
2023/09/12 04:32:30;;;;;;;;;;;24.60;53.80;;;;;;5053730;28;20336;-59
2023/09/12 04:34:57;;;;;;;;;;;24.60;53.80;;;;;;5053022;28;19925;-59
2023/09/12 04:37:24;;;;;;;;;;;24.60;53.90;;;;;;5047853;28;19931;-60
2023/09/12 04:39:51;;;;;;;;;;;24.50;53.80;;;;;;5047063;28;19929;-59
2023/09/12 04:42:18;;;;;;;;;;;24.40;53.80;;;;;;5052976;28;19979;-59
2023/09/12 04:44:45;;;;;;;;;;;24.30;54.00;;;;;;5066608;28;19972;-59
2023/09/12 04:47:12;;;;;;;;;;;24.10;54.30;;;;;;5047851;28;19975;-59
2023/09/12 04:49:39;;;;;;;;;;;23.80;55.10;;;;;;5047277;28;19925;-60
2023/09/12 04:52:06;;;;;;;;;;;23.60;53.90;;;;;;5052250;28;19932;-59
2023/09/12 04:54:33;;;;;;;;;;;23.30;52.30;;;;;;5046983;28;19924;-60
2023/09/12 04:57:00;;;;;;;;;;;23.00;51.10;;;;;;5044732;28;19925;-59
2023/09/12 04:59:27;;;;;;;;;;;22.70;50.50;;;;;;5038925;28;19972;-59
2023/09/12 05:01:54;;;;;;;;;;;22.40;50.20;;;;;;5034261;28;19925;-59
2023/09/12 05:04:21;;;;;;;;;;;22.20;50.80;;;;;;5033362;28;19929;-59
2023/09/12 05:06:48;;;;;;;;;;;21.90;50.40;;;;;;5037960;28;20329;-59
2023/09/12 05:09:16;;;;;;;;;;;21.60;50.70;;;;;;5057470;28;19924;-59
2023/09/12 05:11:44;;;;;;;;;;;21.30;51.50;;;;;;5046759;28;19925;-59
2023/09/12 05:14:11;;;;;;;;;;;21.00;52.20;;;;;;5045491;28;20015;-59
2023/09/12 05:16:38;;;;;;;;;;;20.80;53.00;;;;;;5047062;28;20391;-59
2023/09/12 05:19:05;;;;;;;;;;;20.60;51.50;;;;;;5049271;28;19925;-62
2023/09/12 05:21:32;;;;;;;;;;;20.40;52.90;;;;;;5049266;28;20451;-59
2023/09/12 05:24:00;;;;;;;;;;;20.30;52.50;;;;;;5044147;28;20392;-59
2023/09/12 05:26:27;;;;;;;;;;;20.10;52.50;;;;;;5043531;28;20301;-58
2023/09/12 05:28:54;;;;;;;;;;;19.90;51.80;;;;;;5042799;28;20353;-59
2023/09/12 05:31:21;;;;;;;;;;;19.80;52.70;;;;;;5044212;28;19975;-59
2023/09/12 05:33:49;;;;;;;;;;;19.70;53.30;;;;;;5040864;28;19944;-60
2023/09/12 05:36:16;;;;;;;;;;;19.60;53.80;;;;;;5039190;28;19925;-59
2023/09/12 05:38:43;;;;;;;;;;;19.50;53.90;;;;;;5043324;28;19940;-59
2023/09/12 05:41:11;;;;;;;;;;;19.50;54.30;;;;;;5039805;28;19980;-59
2023/09/12 05:43:38;;;;;;;;;;;19.40;52.70;;;;;;5040490;28;19935;-59
2023/09/12 05:46:05;;;;;;;;;;;19.30;53.20;;;;;;5038199;28;20003;-59
2023/09/12 05:48:32;;;;;;;;;;;19.30;53.80;;;;;;5043002;28;20377;-59
2023/09/12 05:50:59;;;;;;;;;;;19.30;53.00;;;;;;5045286;28;19935;-59
2023/09/12 05:53:26;;;;;;;;;;;19.20;53.20;;;;;;5046799;28;19955;-60
2023/09/12 05:55:53;;;;;;;;;;;19.20;53.70;;;;;;5044136;28;19979;-61
2023/09/12 05:58:21;;;;;;;;;;;19.10;53.70;;;;;;5040761;28;20353;-61
2023/09/12 06:00:48;;;;;;;;;;;19.10;53.70;;;;;;5045572;28;19933;-59
2023/09/12 06:03:16;;;;;;;;;;;19.10;53.20;;;;;;5040728;28;19939;-58
2023/09/12 06:05:43;;;;;;;;;;;19.10;54.10;;;;;;5042794;28;20035;-58
2023/09/12 06:08:10;;;;;;;;;;;19.10;52.70;;;;;;5046531;28;20373;-59
2023/09/12 06:10:37;;;;;;;;;;;19.10;52.70;;;;;;5044831;28;20967;-59
2023/09/12 06:13:04;;;;;;;;;;;19.10;54.00;;;;;;5043963;28;20305;-59
2023/09/12 06:15:31;;;;;;;;;;;19.00;53.20;;;;;;5042799;28;19970;-59
2023/09/12 06:17:58;;;;;;;;;;;19.10;52.80;;;;;;5045668;28;19933;-60
2023/09/12 06:20:26;;;;;;;;;;;19.00;53.10;;;;;;5044286;28;19952;-60
2023/09/12 06:22:53;;;;;;;;;;;19.00;53.40;;;;;;5050114;28;19933;-60
2023/09/12 06:25:20;;;;;;;;;;;19.00;53.00;;;;;;5042011;28;20032;-63
2023/09/12 06:27:47;;;;;;;;;;;19.00;53.10;;;;;;5044435;28;19971;-62
2023/09/12 06:30:14;;;;;;;;;;;19.00;54.00;;;;;;5042689;28;20762;-62
2023/09/12 06:32:42;;;;;;;;;;;19.00;53.60;;;;;;5046461;28;19924;-59
2023/09/12 06:35:10;;;;;;;;;;;19.00;53.00;;;;;;5049701;28;19924;-61
2023/09/12 06:37:39;;;;;;;;;;;19.00;54.20;;;;;;5053501;28;19951;-60
2023/09/12 06:40:06;;;;;;;;;;;19.00;55.00;;;;;;5054760;28;19933;-60
2023/09/12 06:42:33;;;;;;;;;;;19.00;53.80;;;;;;5049115;28;19924;-60
2023/09/12 06:45:01;;;;;;;;;;;19.00;53.50;;;;;;5043093;28;19955;-63
2023/09/12 06:47:28;;;;;;;;;;;19.00;54.00;;;;;;5043895;28;19932;-61
2023/09/12 06:49:55;;;;;;;;;;;19.00;54.20;;;;;;5039116;28;19925;-60
2023/09/12 06:52:22;;;;;;;;;;;19.00;54.70;;;;;;5042549;28;19932;-60
2023/09/12 06:54:50;;;;;;;;;;;19.00;53.70;;;;;;5049856;28;19924;-59
2023/09/12 06:57:17;;;;;;;;;;;19.00;53.40;;;;;;5043932;28;19932;-60
2023/09/12 06:59:45;;;;;;;;;;;19.00;53.10;;;;;;5042274;28;19936;-61
2023/09/12 07:02:12;;;;;;;;;;;19.00;56.10;;;;;;5044261;28;19968;-61
2023/09/12 07:04:40;;;;;;;;;;;19.00;57.20;;;;;;5043784;28;19986;-59
2023/09/12 07:07:07;;;;;;;;;;;19.00;55.20;;;;;;5050098;28;19940;-61
2023/09/12 07:09:34;;;;;;;;;;;19.00;55.00;;;;;;5044366;28;20389;-59
2023/09/12 07:12:02;;;;;;;;;;;19.00;53.80;;;;;;5046063;28;19940;-60
2023/09/12 07:14:31;;;;;;;;;;;19.00;55.20;;;;;;5044626;28;19964;-59
2023/09/12 07:16:58;;;;;;;;;;;19.00;55.60;;;;;;5044076;28;19969;-60
2023/09/12 07:19:25;;;;;;;;;;;19.10;56.90;;;;;;5045158;28;19933;-60
2023/09/12 07:21:52;;;;;;;;;;;19.10;56.30;;;;;;5043669;28;19928;-61
2023/09/12 07:24:20;;;;;;;;;;;19.10;58.10;;;;;;5046086;28;20003;-60
2023/09/12 07:26:47;;;;;;;;;;;19.10;56.80;;;;;;5043261;28;19925;-60
2023/09/12 07:29:14;;;;;;;;;;;19.10;58.10;;;;;;5042784;28;20381;-59
2023/09/12 07:31:41;;;;;;;;;;;19.10;57.60;;;;;;5043588;28;19929;-61
2023/09/12 07:34:09;;;;;;;;;;;19.10;57.80;;;;;;5040674;28;19928;-60
2023/09/12 07:36:36;;;;;;;;;;;19.10;58.10;;;;;;5043198;28;20492;-62
2023/09/12 07:39:04;;;;;;;;;;;19.10;58.50;;;;;;5041014;28;20373;-62
2023/09/12 07:41:31;;;;;;;;;;;19.10;58.30;;;;;;5046877;28;19979;-62
2023/09/12 07:43:58;;;;;;;;;;;19.10;59.10;;;;;;5041636;28;20369;-62
2023/09/12 07:46:26;;;;;;;;;;;19.00;59.20;;;;;;5042834;28;19933;-60
2023/09/12 07:48:53;;;;;;;;;;;19.10;59.40;;;;;;5045186;28;20065;-60
2023/09/12 07:51:22;;;;;;;;;;;19.10;59.60;;;;;;5046589;28;19933;-62
2023/09/12 07:53:49;;;;;;;;;;;19.10;59.20;;;;;;5042155;28;19939;-62
2023/09/12 07:56:16;;;;;;;;;;;19.10;59.60;;;;;;5042271;28;20032;-60
2023/09/12 07:58:44;;;;;;;;;;;19.20;59.90;;;;;;5043648;28;20285;-61
2023/09/12 08:01:12;;;;;;;;;;;19.20;59.80;;;;;;5043125;28;20311;-62
2023/09/12 08:03:39;;;;;;;;;;;19.20;59.50;;;;;;5037845;28;19939;-62
2023/09/12 08:06:07;;;;;;;;;;;19.20;60.00;;;;;;5042059;28;19976;-59
2023/09/12 08:08:37;;;;;;;;;;;19.20;59.10;;;;;;5037437;28;20455;-62
2023/09/12 08:11:05;;;;;;;;;;;19.30;59.10;;;;;;5042300;28;19982;-60
2023/09/12 08:13:32;;;;;;;;;;;19.30;59.40;;;;;;5043132;28;19976;-60
2023/09/12 08:15:59;;;;;;;;;;;19.30;59.80;;;;;;5045288;28;19932;-59
2023/09/12 08:18:28;;;;;;;;;;;19.30;60.00;;;;;;5043768;28;19935;-62
2023/09/12 08:20:55;;;;;;;;;;;19.30;60.70;;;;;;5042612;28;19925;-58
2023/09/12 08:23:23;;;;;;;;;;;19.30;60.80;;;;;;5041038;28;19937;-60
2023/09/12 08:25:51;;;;;;;;;;;19.40;60.00;;;;;;5043627;28;20366;-61
2023/09/12 08:28:18;;;;;;;;;;;19.40;59.00;;;;;;5045049;28;19976;-60
2023/09/12 08:30:46;;;;;;;;;;;19.50;59.50;;;;;;5050473;28;20023;-61
2023/09/12 08:33:13;;;;;;;;;;;19.50;59.60;;;;;;5040006;28;19932;-61
2023/09/12 08:35:40;;;;;;;;;;;19.50;60.50;;;;;;5043560;28;20333;-60
2023/09/12 08:38:08;;;;;;;;;;;19.50;60.00;;;;;;5045630;28;19972;-61
2023/09/12 08:40:35;;;;;;;;;;;19.60;60.40;;;;;;5039608;28;20280;-62
2023/09/12 08:43:06;;;;;;;;;;;19.60;59.70;;;;;;5046411;28;19924;-61
2023/09/12 08:45:35;;;;;;;;;;;19.70;58.60;;;;;;5043402;28;19952;-61
2023/09/12 08:48:03;;;;;;;;;;;19.70;59.40;;;;;;5039823;28;19925;-59
2023/09/12 08:50:33;;;;;;;;;;;19.70;59.80;;;;;;5042479;28;19936;-60
2023/09/12 08:53:00;;;;;;;;;;;19.70;58.80;;;;;;5039790;28;19929;-60
2023/09/12 08:55:38;;;;;;;;;;;19.70;60.00;;;;;;5038651;28;19939;-60
2023/09/12 08:58:05;;;;;;;;;;;19.70;59.70;;;;;;5041332;28;19925;-60
2023/09/12 09:00:35;;;;;;;;;;;19.70;59.80;;;;;;5040892;28;19987;-59
2023/09/12 09:03:03;;;;;;;;;;;19.70;59.50;;;;;;5039452;28;19933;-61
2023/09/12 09:05:31;;;;;;;;;;;19.70;59.30;;;;;;5043555;28;19928;-62
2023/09/12 09:07:58;;;;;;;;;;;19.70;59.50;;;;;;5040498;28;19936;-60
2023/09/12 09:10:32;;;;;;;;;;;19.80;60.50;;;;;;5039744;28;19982;-60
2023/09/12 09:13:16;;;;;;;;;;;19.80;59.60;;;;;;5041593;28;19928;-60
2023/09/12 09:15:43;;;;;;;;;;;19.90;60.60;;;;;;5044777;28;19925;-59
2023/09/12 09:18:12;;;;;;;;;;;19.90;59.80;;;;;;5047175;28;20331;-59
2023/09/12 09:20:40;;;;;;;;;;;19.90;60.50;;;;;;5062869;28;20019;-62
2023/09/12 09:23:09;;;;;;;;;;;19.90;60.80;;;;;;5044790;28;19928;-60
2023/09/12 09:25:40;;;;;;;;;;;20.00;60.10;;;;;;5044495;28;19925;-61
2023/09/12 09:28:27;;;;;;;;;;;20.00;59.90;;;;;;5039522;28;19986;-61
2023/09/12 09:30:56;;;;;;;;;;;20.00;59.60;;;;;;5037975;28;19925;-60
2023/09/12 09:33:23;;;;;;;;;;;20.00;60.40;;;;;;5041518;28;20011;-61
2023/09/12 09:35:51;;;;;;;;;;;20.10;60.20;;;;;;5042699;28;19935;-61
2023/09/12 09:38:19;;;;;;;;;;;20.10;61.00;;;;;;5044109;28;19928;-60
2023/09/12 09:40:47;;;;;;;;;;;20.20;61.10;;;;;;5046756;28;19928;-60
2023/09/12 09:43:19;;;;;;;;;;;20.20;59.90;;;;;;5040840;28;19956;-61
2023/09/12 09:45:47;;;;;;;;;;;20.30;60.40;;;;;;5041589;28;19932;-61
2023/09/12 09:48:18;;;;;;;;;;;20.30;59.40;;;;;;5040012;28;20027;-60
2023/09/12 09:50:46;;;;;;;;;;;20.30;59.90;;;;;;5041427;28;19940;-61
2023/09/12 09:53:13;;;;;;;;;;;20.30;59.10;;;;;;5043385;28;19971;-59
2023/09/12 09:55:42;;;;;;;;;;;20.30;58.30;;;;;;5040334;28;20429;-61
2023/09/12 09:58:16;;;;;;;;;;;20.30;59.70;;;;;;5046201;28;19940;-62
2023/09/12 10:00:43;;;;;;;;;;;20.20;60.30;;;;;;5038719;28;19983;-62
2023/09/12 10:03:12;;;;;;;;;;;20.20;59.40;;;;;;5040834;28;21027;-62
2023/09/12 10:05:42;;;;;;;;;;;20.30;58.60;;;;;;5045930;28;19924;-62
2023/09/12 10:08:10;;;;;;;;;;;20.30;59.20;;;;;;5047563;28;20230;-62
2023/09/12 10:10:38;;;;;;;;;;;20.30;58.30;;;;;;5042146;28;19929;-62
2023/09/12 10:13:05;;;;;;;;;;;20.30;57.40;;;;;;5042686;28;19987;-60
2023/09/12 10:15:33;;;;;;;;;;;20.20;57.90;;;;;;5045728;28;19935;-60
2023/09/12 10:18:04;;;;;;;;;;;20.20;57.90;;;;;;5042553;28;20835;-62
2023/09/12 10:20:55;;;;;;;;;;;20.20;57.60;;;;;;5044837;28;20027;-62
2023/09/12 10:23:25;;;;;;;;;;;20.20;58.30;;;;;;5040452;28;19925;-62
2023/09/12 10:25:53;;;;;;;;;;;20.20;58.10;;;;;;5042100;28;19932;-62
2023/09/12 10:28:21;;;;;;;;;;;20.10;58.20;;;;;;5040060;28;19959;-62
2023/09/12 10:30:49;;;;;;;;;;;20.10;58.70;;;;;;5045210;28;19925;-62
2023/09/12 10:33:17;;;;;;;;;;;20.00;58.30;;;;;;5047257;28;19925;-62
2023/09/12 10:35:44;;;;;;;;;;;20.00;58.50;;;;;;5048322;28;19955;-62
2023/09/12 10:38:13;;;;;;;;;;;20.00;58.60;;;;;;5049446;28;19925;-62
2023/09/12 10:40:41;;;;;;;;;;;20.00;58.30;;;;;;5043538;28;20653;-62
2023/09/12 10:43:11;;;;;;;;;;;20.00;58.50;;;;;;5051877;28;19936;-61
2023/09/12 10:45:39;;;;;;;;;;;20.00;58.70;;;;;;5054146;28;19936;-63
2023/09/12 10:48:06;;;;;;;;;;;20.00;58.30;;;;;;5049274;28;19932;-62
2023/09/12 10:50:34;;;;;;;;;;;20.00;58.30;;;;;;5053539;28;19929;-62
2023/09/12 10:53:11;;;;;;;;;;;20.00;58.20;;;;;;5053745;28;19994;-61
2023/09/12 10:55:38;;;;;;;;;;;20.10;58.40;;;;;;5046423;28;19963;-61
2023/09/12 10:58:07;;;;;;;;;;;20.10;57.00;;;;;;5047067;28;20456;-60
2023/09/12 11:00:34;;;;;;;;;;;20.00;58.10;;;;;;5045055;28;19978;-59
2023/09/12 11:03:21;;;;;;;;;;;20.10;58.30;;;;;;5050977;28;19940;-61
2023/09/12 11:05:53;;;;;;;;;;;20.10;58.50;;;;;;5045537;28;20015;-60
2023/09/12 11:08:22;;;;;;;;;;;20.10;58.40;;;;;;5042683;28;19932;-61
2023/09/12 11:11:09;;;;;;;;;;;20.10;57.80;;;;;;5047175;28;20427;-62
2023/09/12 11:13:42;;;;;;;;;;;20.10;57.30;;;;;;5040795;28;20381;-61
2023/09/12 11:16:10;;;;;;;;;;;20.20;58.30;;;;;;5043313;28;19924;-59
2023/09/12 11:18:57;;;;;;;;;;;20.20;57.80;;;;;;5045132;28;20015;-59
2023/09/12 11:21:32;;;;;;;;;;;20.20;58.40;;;;;;5045900;28;19929;-62
2023/09/12 11:23:59;;;;;;;;;;;20.20;58.10;;;;;;5045589;28;19928;-60
2023/09/12 11:26:27;;;;;;;;;;;20.20;58.80;;;;;;5046118;28;19928;-61
2023/09/12 11:28:55;;;;;;;;;;;20.20;58.40;;;;;;5046728;28;19980;-62
2023/09/12 11:31:28;;;;;;;;;;;20.30;58.70;;;;;;5044270;28;20781;-63
2023/09/12 11:34:00;;;;;;;;;;;20.30;59.30;;;;;;5042963;28;20400;-62
2023/09/12 11:36:27;;;;;;;;;;;20.30;59.40;;;;;;5047551;28;19932;-62
2023/09/12 11:39:01;;;;;;;;;;;20.40;59.80;;;;;;5038101;28;19935;-62
2023/09/12 11:41:39;;;;;;;;;;;20.40;59.10;;;;;;5046357;28;19933;-62
2023/09/12 11:44:06;;;;;;;;;;;20.50;59.40;;;;;;5043397;28;20713;-63
2023/09/12 11:46:35;;;;;;;;;;;20.50;59.50;;;;;;5043703;28;19928;-63
2023/09/12 11:49:02;;;;;;;;;;;20.60;59.40;;;;;;5047586;28;20050;-62
2023/09/12 11:51:29;;;;;;;;;;;20.60;59.40;;;;;;5046092;28;19925;-62
2023/09/12 11:53:59;;;;;;;;;;;20.60;59.20;;;;;;5045014;28;20004;-60
2023/09/12 11:56:27;;;;;;;;;;;20.70;59.10;;;;;;5061043;28;19979;-60
2023/09/12 11:58:55;;;;;;;;;;;20.70;58.80;;;;;;5042007;28;19933;-61
2023/09/12 12:01:22;;;;;;;;;;;20.80;59.40;;;;;;5046177;28;20043;-62
2023/09/12 12:03:52;;;;;;;;;;;20.80;59.10;;;;;;5041033;28;19951;-61
2023/09/12 12:06:20;;;;;;;;;;;20.80;58.80;;;;;;5043488;28;19933;-62
2023/09/12 12:08:48;;;;;;;;;;;20.90;59.10;;;;;;5044743;28;19932;-62
2023/09/12 12:11:15;;;;;;;;;;;20.90;58.90;;;;;;5041336;28;20015;-62
2023/09/12 12:13:44;;;;;;;;;;;20.90;58.40;;;;;;5043486;28;19939;-62
2023/09/12 12:16:15;;;;;;;;;;;21.00;57.70;;;;;;5046615;28;19945;-62
2023/09/12 12:18:42;;;;;;;;;;;21.00;58.20;;;;;;5047830;28;19925;-62
2023/09/12 12:21:09;;;;;;;;;;;21.00;58.20;;;;;;5044428;28;19928;-63
2023/09/12 12:23:36;;;;;;;;;;;21.10;58.30;;;;;;5043346;28;20032;-62
2023/09/12 12:26:08;;;;;;;;;;;21.10;57.70;;;;;;5044582;28;19982;-62
2023/09/12 12:28:35;;;;;;;;;;;21.10;58.20;;;;;;5045286;28;19925;-62
2023/09/12 12:31:02;;;;;;;;;;;21.10;57.70;;;;;;5038507;28;19933;-62
2023/09/12 12:33:30;;;;;;;;;;;21.10;58.10;;;;;;5045113;28;20450;-62
2023/09/12 12:36:01;;;;;;;;;;;21.10;57.30;;;;;;5038550;28;19937;-63
2023/09/12 12:38:34;;;;;;;;;;;21.20;57.40;;;;;;5043161;28;20040;-61
2023/09/12 12:41:03;;;;;;;;;;;21.20;57.20;;;;;;5043123;28;19932;-61
2023/09/12 12:43:30;;;;;;;;;;;21.20;57.00;;;;;;5041808;28;20361;-61
2023/09/12 12:45:58;;;;;;;;;;;21.20;57.20;;;;;;5045851;28;19986;-62
2023/09/12 12:48:32;;;;;;;;;;;21.20;57.30;;;;;;5039886;28;20278;-63
2023/09/12 12:51:11;;;;;;;;;;;21.30;57.20;;;;;;5045980;28;20345;-64
2023/09/12 12:53:42;;;;;;;;;;;21.30;57.40;;;;;;5042985;28;19960;-62
2023/09/12 12:56:22;;;;;;;;;;;21.30;57.20;;;;;;5041299;28;19925;-62
2023/09/12 12:58:50;;;;;;;;;;;21.30;57.10;;;;;;5044099;28;20023;-62
2023/09/12 13:01:18;;;;;;;;;;;21.30;57.50;;;;;;5043299;28;19928;-60
2023/09/12 13:03:45;;;;;;;;;;;21.30;56.70;;;;;;5040865;28;19975;-60
2023/09/12 13:06:14;;;;;;;;;;;21.30;57.20;;;;;;5046718;28;20011;-58
2023/09/12 13:08:44;;;;;;;;;;;21.30;57.00;;;;;;5045136;28;20390;-60
2023/09/12 13:11:12;;;;;;;;;;;21.30;56.40;;;;;;5042944;28;19933;-59
2023/09/12 13:13:43;;;;;;;;;;;21.30;56.80;;;;;;5042715;28;19968;-59
2023/09/12 13:16:12;;;;;;;;;;;21.30;56.90;;;;;;5040394;28;19963;-61
2023/09/12 13:18:40;;;;;;;;;;;21.30;56.60;;;;;;5037765;28;19939;-61
2023/09/12 13:21:07;;;;;;;;;;;21.30;57.20;;;;;;5039435;28;20067;-60
2023/09/12 13:23:35;;;;;;;;;;;21.30;56.90;;;;;;5040689;28;19994;-60
2023/09/12 13:26:03;;;;;;;;;;;21.30;57.00;;;;;;5041586;28;19961;-61
2023/09/12 13:28:30;;;;;;;;;;;21.30;57.00;;;;;;5044149;28;19935;-60
2023/09/12 13:30:58;;;;;;;;;;;21.30;57.80;;;;;;5040960;28;20034;-60
2023/09/12 13:33:25;;;;;;;;;;;21.30;56.90;;;;;;5042831;28;20024;-60
2023/09/12 13:35:52;;;;;;;;;;;21.30;56.90;;;;;;5044529;28;19956;-58
2023/09/12 13:38:19;;;;;;;;;;;21.30;56.80;;;;;;5040932;28;19945;-62
2023/09/12 13:40:47;;;;;;;;;;;21.30;57.60;;;;;;5041554;28;20314;-61
2023/09/12 13:43:14;;;;;;;;;;;21.30;57.50;;;;;;5039314;28;19925;-60
2023/09/12 13:45:41;;;;;;;;;;;21.30;57.20;;;;;;5046712;28;19925;-64
2023/09/12 13:48:09;;;;;;;;;;;21.30;57.40;;;;;;5043948;28;19925;-60
2023/09/12 13:50:36;;;;;;;;;;;21.30;57.50;;;;;;5041735;28;20364;-59
2023/09/12 13:53:05;;;;;;;;;;;21.30;57.50;;;;;;5042153;28;19965;-59
2023/09/12 13:55:34;;;;;;;;;;;21.40;56.90;;;;;;5043032;28;19952;-60
2023/09/12 13:58:21;;;;;;;;;;;21.40;57.40;;;;;;5042978;28;20258;-60
2023/09/12 14:00:49;;;;;;;;;;;21.40;57.20;;;;;;5044275;28;19971;-61
2023/09/12 14:03:16;;;;;;;;;;;21.30;57.00;;;;;;5044400;28;19936;-61
2023/09/12 14:05:43;;;;;;;;;;;21.40;60.10;;;;;;5050453;28;19933;-60
2023/09/12 14:08:10;;;;;;;;;;;21.50;68.40;;;;;;5043435;28;19933;-62
2023/09/12 14:10:38;;;;;;;;;;;21.70;71.60;;;;;;5055674;28;19932;-59
2023/09/12 14:13:08;;;;;;;;;;;21.90;72.80;;;;;;5045707;28;19925;-61
2023/09/12 14:15:37;;;;;;;;;;;22.20;73.10;;;;;;5047502;28;19964;-61
2023/09/12 14:18:05;;;;;;;;;;;22.40;73.30;;;;;;5045443;28;19943;-61
2023/09/12 14:20:32;;;;;;;;;;;22.70;73.00;;;;;;5045248;28;19968;-60
2023/09/12 14:23:01;;;;;;;;;;;22.90;73.10;;;;;;5048549;28;19935;-62